OISF  Fasa  Airport

Fasa, Iran

Add Bookmark
ICAO OISF
IATA FAZ
Type Airport
Status Operational
Latitude
28° 53' 30" N
28.891800
Longitude
53° 43' 23" E
53.723301
Local (GMT +4.5 ) UTC
May 29, 2016 05:56 pm May 29, 2016 13:26
Sunrise-Sunset Local UTC
Begin Civil Twilight 05:29 am 00:59
Sunrise 05:56 am 01:26
Sunset 07:49 pm 15:19
End Civil Twilight 08:15 pm 15:45
VFR
VFR
MVFR
MVFR
IFR
IFR
LIFR
LIFR
Unknown
Unavailable

Current Weather

METAR Observed VFR
OISF 291300Z 27010KT CAVOK 37/M01 Q1010 Sun, May 29, 2016 @ 13:00 UTC
(26 Minutes ago)
Visual Flight Rules
Wind Visibility Conditions
270° at 10 knots (19 kph) 10 km or more
  • No significant weather
Temperatures Readings Precipitation
Current Temp
37°C
99°F
Dewpoint
-1°C
30°F
Humidity 9%
Altimeter 29.82" Hg
Sea Level Pressure 1,010 mb
Field Elevation
1,383 m
4,537 ft
None Recorded
-
-

CheckWX.com is intended as a tool to help pilots better visualize weather data. It is not intended as a substitute for an official weather briefing obtained from a Flight Service Station. CheckWX.com does not meet the FAA requirements for an official pre-flight weather briefing. Therefore, it's important that pilots still call and obtain an official FSS pre-flight weather briefing.

© 2007-2016 CheckWX.com
13:26:43 UTC